MXD821 RKSI-WMKK
Flight info
| Callsign | MXD821 |
|---|---|
| Flight time | N/A |
| Altitude | 36000 |
| Route | BOPTA3H BOPTA Z51 BEDES Y711 MUGUS Y742 SALMI B576 APU DCT MKG DCT KAPLI DCT ENBOK/N0460F380 L642 EPKAL/K0857F360 L642 KARAN/K0848F390 L642 CN/K0848F380 M765 BITOD/N0458F380 M765 IGARI R208 VKR Y346 PULIP PULIP1J |
| Aircraft | B38M/M-VGDW/C |
Departure
| Time | 2026-05-04 17:46 |
|---|---|
| Airport | Incheon International Airport (RKSI) |
Arrival
| Time | N/A |
|---|---|
| Airport | Kuala Lumpur International Airport (WMKK) |
| Time | Latitude | Longitude | Altitude | Speed | Heading |
|---|---|---|---|---|---|
| 2026-05-04 16:55 | 37.45062 | 126.44481 | 35 ft | 0 kts | 117° |
| 2026-05-04 17:31 | 37.45063 | 126.44480 | 35 ft | 1 kts | 117° |
| 2026-05-04 17:31 | 37.45088 | 126.44418 | 35 ft | 3 kts | 117° |
| 2026-05-04 17:32 | 37.45105 | 126.44381 | 35 ft | 3 kts | 142° |
| 2026-05-04 17:33 | 37.45148 | 126.44394 | 35 ft | 1 kts | 219° |
| 2026-05-04 17:33 | 37.45151 | 126.44396 | 35 ft | 0 kts | 219° |
| 2026-05-04 17:36 | 37.45144 | 126.44389 | 35 ft | 2 kts | 219° |
| 2026-05-04 17:36 | 37.45126 | 126.44365 | 35 ft | 6 kts | 232° |
| 2026-05-04 17:37 | 37.45090 | 126.44306 | 35 ft | 11 kts | 232° |
| 2026-05-04 17:37 | 37.45038 | 126.44219 | 35 ft | 13 kts | 232° |
| 2026-05-04 17:37 | 37.44986 | 126.44120 | 35 ft | 14 kts | 238° |
| 2026-05-04 17:37 | 37.44971 | 126.44036 | 35 ft | 9 kts | 306° |
| 2026-05-04 17:38 | 37.45024 | 126.43986 | 35 ft | 10 kts | 324° |
| 2026-05-04 17:38 | 37.45099 | 126.43918 | 35 ft | 17 kts | 325° |
| 2026-05-04 17:38 | 37.45211 | 126.43819 | 35 ft | 21 kts | 324° |
| 2026-05-04 17:38 | 37.45333 | 126.43711 | 35 ft | 22 kts | 324° |
| 2026-05-04 17:39 | 37.45594 | 126.43478 | 35 ft | 24 kts | 324° |
| 2026-05-04 17:39 | 37.45726 | 126.43362 | 35 ft | 23 kts | 325° |
| 2026-05-04 17:39 | 37.45858 | 126.43243 | 35 ft | 24 kts | 324° |
| 2026-05-04 17:40 | 37.45996 | 126.43120 | 34 ft | 25 kts | 324° |
| 2026-05-04 17:40 | 37.46140 | 126.42991 | 35 ft | 26 kts | 324° |
| 2026-05-04 17:40 | 37.46276 | 126.42871 | 35 ft | 21 kts | 325° |
| 2026-05-04 17:40 | 37.46398 | 126.42762 | 35 ft | 22 kts | 324° |
| 2026-05-04 17:41 | 37.46527 | 126.42646 | 34 ft | 23 kts | 324° |
| 2026-05-04 17:41 | 37.46662 | 126.42527 | 35 ft | 24 kts | 325° |
| 2026-05-04 17:41 | 37.46795 | 126.42409 | 35 ft | 24 kts | 324° |
| 2026-05-04 17:41 | 37.46933 | 126.42286 | 35 ft | 25 kts | 324° |
| 2026-05-04 17:42 | 37.47073 | 126.42160 | 33 ft | 22 kts | 325° |
| 2026-05-04 17:42 | 37.47163 | 126.42081 | 35 ft | 15 kts | 323° |
| 2026-05-04 17:42 | 37.47217 | 126.42033 | 34 ft | 9 kts | 325° |
| 2026-05-04 17:42 | 37.47270 | 126.41986 | 35 ft | 10 kts | 323° |
| 2026-05-04 17:43 | 37.47332 | 126.41931 | 35 ft | 12 kts | 325° |
| 2026-05-04 17:43 | 37.47397 | 126.41874 | 35 ft | 9 kts | 324° |
| 2026-05-04 17:43 | 37.47404 | 126.41812 | 35 ft | 8 kts | 238° |
| 2026-05-04 17:43 | 37.47369 | 126.41748 | 35 ft | 10 kts | 233° |
| 2026-05-04 17:44 | 37.47327 | 126.41674 | 35 ft | 11 kts | 235° |
| 2026-05-04 17:44 | 37.47286 | 126.41603 | 35 ft | 10 kts | 240° |
| 2026-05-04 17:44 | 37.47244 | 126.41583 | 35 ft | 5 kts | 142° |
| 2026-05-04 17:44 | 37.47218 | 126.41610 | 35 ft | 5 kts | 141° |
| 2026-05-04 17:45 | 37.47173 | 126.41653 | 34 ft | 15 kts | 144° |
| 2026-05-04 17:45 | 37.46931 | 126.41869 | 35 ft | 78 kts | 145° |
| 2026-05-04 17:45 | 37.46305 | 126.42430 | 34 ft | 143 kts | 143° |
| 2026-05-04 17:45 | 37.45351 | 126.43300 | 224 ft | 180 kts | 144° |
| 2026-05-04 17:46 | 37.44346 | 126.44192 | 1151 ft | 180 kts | 148° |
| 2026-05-04 17:46 | 37.43292 | 126.45048 | 1710 ft | 186 kts | 154° |
| 2026-05-04 17:46 | 37.42129 | 126.45823 | 2179 ft | 188 kts | 155° |
| 2026-05-04 17:46 | 37.41045 | 126.46608 | 2660 ft | 188 kts | 153° |
| 2026-05-04 17:47 | 37.39909 | 126.47456 | 3077 ft | 195 kts | 152° |
| 2026-05-04 17:47 | 37.38682 | 126.48337 | 3332 ft | 211 kts | 160° |
| 2026-05-04 17:47 | 37.37227 | 126.48899 | 3599 ft | 227 kts | 167° |
| 2026-05-04 17:47 | 37.35651 | 126.49429 | 3919 ft | 243 kts | 167° |
| 2026-05-04 17:48 | 37.33961 | 126.50001 | 4331 ft | 253 kts | 167° |
| 2026-05-04 17:48 | 37.32254 | 126.50580 | 4946 ft | 258 kts | 166° |
| 2026-05-04 17:48 | 37.30470 | 126.51183 | 5298 ft | 273 kts | 166° |
| 2026-05-04 17:48 | 37.28620 | 126.51810 | 5883 ft | 274 kts | 166° |
| 2026-05-04 17:49 | 37.26857 | 126.52732 | 6536 ft | 277 kts | 152° |
| 2026-05-04 17:49 | 37.25156 | 126.53911 | 7072 ft | 281 kts | 153° |
| 2026-05-04 17:49 | 37.23429 | 126.55092 | 7661 ft | 284 kts | 153° |
| 2026-05-04 17:49 | 37.21698 | 126.56271 | 8222 ft | 287 kts | 153° |
| 2026-05-04 17:50 | 37.19921 | 126.57476 | 8808 ft | 289 kts | 153° |
| 2026-05-04 17:50 | 37.18140 | 126.58682 | 9385 ft | 292 kts | 153° |
| 2026-05-04 17:50 | 37.16346 | 126.59895 | 9959 ft | 295 kts | 153° |
| 2026-05-04 17:50 | 37.14510 | 126.61135 | 10364 ft | 304 kts | 153° |
| 2026-05-04 17:51 | 37.12549 | 126.62231 | 10552 ft | 317 kts | 168° |
| 2026-05-04 17:51 | 37.10311 | 126.62450 | 10706 ft | 330 kts | 182° |
| 2026-05-04 17:51 | 37.08775 | 126.62445 | 10816 ft | 340 kts | 181° |
| 2026-05-04 17:51 | 37.06371 | 126.62438 | 11161 ft | 346 kts | 181° |
| 2026-05-04 17:52 | 37.03965 | 126.62420 | 11768 ft | 346 kts | 181° |
| 2026-05-04 17:52 | 37.01548 | 126.62395 | 12315 ft | 349 kts | 181° |
| 2026-05-04 17:52 | 36.99111 | 126.62367 | 12920 ft | 351 kts | 181° |
| 2026-05-04 17:52 | 36.96661 | 126.62389 | 13596 ft | 352 kts | 180° |
| 2026-05-04 17:53 | 36.94210 | 126.62416 | 14192 ft | 355 kts | 180° |
| 2026-05-04 17:53 | 36.91722 | 126.62440 | 14759 ft | 359 kts | 180° |
| 2026-05-04 17:53 | 36.89211 | 126.62461 | 15310 ft | 362 kts | 181° |
| 2026-05-04 17:53 | 36.86681 | 126.62330 | 15847 ft | 366 kts | 183° |
| 2026-05-04 17:54 | 36.84117 | 126.62184 | 16398 ft | 370 kts | 183° |
| 2026-05-04 17:54 | 36.81540 | 126.62047 | 16907 ft | 374 kts | 182° |
| 2026-05-04 17:54 | 36.78926 | 126.61911 | 17424 ft | 377 kts | 182° |
| 2026-05-04 17:54 | 36.76298 | 126.61775 | 17934 ft | 380 kts | 182° |
| 2026-05-04 17:55 | 36.73641 | 126.61772 | 18384 ft | 384 kts | 172° |
| 2026-05-04 17:55 | 36.71028 | 126.62527 | 18825 ft | 386 kts | 165° |
| 2026-05-04 17:55 | 36.68417 | 126.63366 | 19245 ft | 389 kts | 165° |
| 2026-05-04 17:55 | 36.65790 | 126.64230 | 19689 ft | 391 kts | 165° |
| 2026-05-04 17:56 | 36.63158 | 126.65106 | 20130 ft | 393 kts | 165° |
| 2026-05-04 17:56 | 36.60505 | 126.65994 | 20556 ft | 396 kts | 165° |
| 2026-05-04 17:56 | 36.57836 | 126.66888 | 20978 ft | 398 kts | 165° |
| 2026-05-04 17:56 | 36.55167 | 126.67782 | 21406 ft | 400 kts | 165° |
| 2026-05-04 17:57 | 36.52466 | 126.68686 | 21843 ft | 403 kts | 165° |
| 2026-05-04 17:57 | 36.49753 | 126.69594 | 22283 ft | 405 kts | 165° |
| 2026-05-04 17:57 | 36.47022 | 126.70507 | 22718 ft | 408 kts | 165° |
| 2026-05-04 17:57 | 36.44272 | 126.71426 | 23167 ft | 410 kts | 165° |
| 2026-05-04 17:58 | 36.41511 | 126.72348 | 23610 ft | 412 kts | 165° |
| 2026-05-04 17:58 | 36.38734 | 126.73277 | 23987 ft | 415 kts | 165° |
| 2026-05-04 17:58 | 36.35935 | 126.74223 | 24342 ft | 418 kts | 165° |
| 2026-05-04 17:58 | 36.33150 | 126.75162 | 24718 ft | 420 kts | 165° |
| 2026-05-04 17:59 | 36.30321 | 126.76115 | 25084 ft | 423 kts | 166° |
| 2026-05-04 17:59 | 36.27727 | 126.76989 | 25418 ft | 426 kts | 166° |
| 2026-05-04 17:59 | 36.21904 | 126.78948 | 26142 ft | 431 kts | 166° |
| 2026-05-04 18:00 | 36.18996 | 126.79925 | 26494 ft | 434 kts | 167° |
| 2026-05-04 18:00 | 36.16097 | 126.80822 | 26817 ft | 435 kts | 174° |
| 2026-05-04 18:00 | 36.13095 | 126.80902 | 27172 ft | 432 kts | 187° |
| 2026-05-04 18:00 | 36.10081 | 126.80617 | 27461 ft | 436 kts | 187° |
| 2026-05-04 18:01 | 36.07055 | 126.80323 | 27815 ft | 437 kts | 187° |
| 2026-05-04 18:01 | 36.04011 | 126.80008 | 28148 ft | 439 kts | 188° |
| 2026-05-04 18:01 | 36.00963 | 126.79681 | 28462 ft | 442 kts | 188° |
| 2026-05-04 18:02 | 35.94810 | 126.79017 | 29126 ft | 446 kts | 188° |
| 2026-05-04 18:02 | 35.91710 | 126.78682 | 29434 ft | 448 kts | 188° |
| 2026-05-04 18:02 | 35.88601 | 126.78345 | 29752 ft | 450 kts | 188° |
| 2026-05-04 18:02 | 35.85475 | 126.78006 | 30060 ft | 452 kts | 188° |
| 2026-05-04 18:03 | 35.82331 | 126.77666 | 30325 ft | 454 kts | 189° |
| 2026-05-04 18:03 | 35.79180 | 126.77324 | 30579 ft | 456 kts | 189° |
| 2026-05-04 18:03 | 35.76012 | 126.76982 | 30849 ft | 457 kts | 189° |
| 2026-05-04 18:03 | 35.72841 | 126.76639 | 31125 ft | 458 kts | 189° |
| 2026-05-04 18:04 | 35.69677 | 126.76298 | 31491 ft | 457 kts | 189° |
| 2026-05-04 18:04 | 35.66516 | 126.75957 | 31881 ft | 455 kts | 189° |
| 2026-05-04 18:04 | 35.60216 | 126.75278 | 32610 ft | 452 kts | 189° |
| 2026-05-04 18:05 | 35.57090 | 126.74942 | 32979 ft | 451 kts | 190° |
| 2026-05-04 18:05 | 35.53969 | 126.74606 | 33335 ft | 449 kts | 190° |
| 2026-05-04 18:05 | 35.50853 | 126.74271 | 33695 ft | 448 kts | 190° |
| 2026-05-04 18:05 | 35.47756 | 126.73939 | 34057 ft | 447 kts | 191° |
| 2026-05-04 18:06 | 35.41578 | 126.73278 | 34653 ft | 444 kts | 191° |
| 2026-05-04 18:06 | 35.38496 | 126.72948 | 34880 ft | 444 kts | 191° |
| 2026-05-04 18:06 | 35.35457 | 126.72623 | 35123 ft | 444 kts | 191° |
| 2026-05-04 18:07 | 35.32347 | 126.72291 | 35374 ft | 443 kts | 191° |
| 2026-05-04 18:07 | 35.29314 | 126.71967 | 35605 ft | 443 kts | 191° |
| 2026-05-04 18:07 | 35.26252 | 126.71641 | 35837 ft | 442 kts | 191° |
| 2026-05-04 18:07 | 35.23186 | 126.71314 | 36050 ft | 441 kts | 191° |
| 2026-05-04 18:08 | 35.20122 | 126.70988 | 36158 ft | 443 kts | 191° |
| 2026-05-04 18:08 | 35.17032 | 126.70659 | 36157 ft | 446 kts | 191° |
| 2026-05-04 18:08 | 35.10825 | 126.69999 | 36156 ft | 451 kts | 191° |